createdAt,value
2022-11-21T00:00:32.197Z,11.07
2022-11-21T00:03:01.429Z,10.80
2022-11-21T00:05:29.217Z,11.13
2022-11-21T00:07:56.478Z,11.52
2022-11-21T00:10:24.226Z,10.95
2022-11-21T00:12:55.297Z,10.60
2022-11-21T00:15:22.288Z,10.43
2022-11-21T00:17:48.748Z,9.32
2022-11-21T00:20:15.922Z,10.15
2022-11-21T00:22:42.374Z,11.80
2022-11-21T00:25:09.275Z,10.85
2022-11-21T00:27:35.844Z,10.73
2022-11-21T00:30:02.313Z,10.75
2022-11-21T00:32:28.761Z,12.77
2022-11-21T00:34:55.189Z,11.38
2022-11-21T00:37:21.635Z,10.80
2022-11-21T00:39:48.053Z,12.50
2022-11-21T00:42:14.526Z,12.85
2022-11-21T00:44:40.968Z,12.77
2022-11-21T00:47:07.400Z,12.10
2022-11-21T00:49:33.895Z,10.32
2022-11-21T00:52:00.374Z,11.85
2022-11-21T00:54:27.133Z,10.30
2022-11-21T00:56:53.751Z,11.50
2022-11-21T00:59:20.271Z,10.23
2022-11-21T01:01:46.735Z,9.00
2022-11-21T01:04:13.208Z,9.77
2022-11-21T01:06:40.010Z,10.20
2022-11-21T01:09:06.644Z,9.50
2022-11-21T01:11:33.192Z,9.80
2022-11-21T01:13:59.708Z,10.88
2022-11-21T01:16:27.714Z,9.68
2022-11-21T01:18:54.307Z,10.57
2022-11-21T01:21:23.261Z,13.38
2022-11-21T01:23:50.510Z,9.65
2022-11-21T01:26:19.927Z,9.90
2022-11-21T01:28:46.877Z,9.93
2022-11-21T01:31:24.542Z,9.90
2022-11-21T01:33:51.584Z,10.10
2022-11-21T01:36:23.670Z,10.47
2022-11-21T01:38:51.956Z,9.20
2022-11-21T01:41:31.428Z,10.70
2022-11-21T01:43:58.533Z,11.77
2022-11-21T01:46:25.779Z,10.27
2022-11-21T01:49:07.127Z,10.57
2022-11-21T01:51:33.520Z,10.43
2022-11-21T01:54:07.908Z,10.33
2022-11-21T01:56:40.171Z,10.43
2022-11-21T01:59:08.816Z,12.23
2022-11-21T02:01:36.334Z,11.98
2022-11-21T02:04:03.629Z,11.93
2022-11-21T02:06:32.154Z,11.63
2022-11-21T02:08:59.695Z,12.35
2022-11-21T02:11:42.693Z,12.57
2022-11-21T02:14:09.333Z,10.73
2022-11-21T02:16:35.990Z,11.02
2022-11-21T02:19:02.605Z,10.80
2022-11-21T02:22:01.355Z,11.27
2022-11-21T02:24:51.923Z,10.47
2022-11-21T02:27:18.714Z,10.73
2022-11-21T02:29:45.202Z,10.50
2022-11-21T02:32:21.410Z,10.40
2022-11-21T02:34:47.874Z,10.70
2022-11-21T02:37:14.390Z,11.70
2022-11-21T02:39:41.289Z,11.30
2022-11-21T02:42:24.975Z,10.73
2022-11-21T02:45:14.656Z,11.37
2022-11-21T02:47:41.850Z,11.27
2022-11-21T02:50:23.957Z,11.30
2022-11-21T02:52:50.410Z,10.60
2022-11-21T02:55:17.119Z,9.90
2022-11-21T02:57:43.630Z,10.82
2022-11-21T03:00:11.269Z,11.03
2022-11-21T03:02:38.009Z,10.93
2022-11-21T03:05:05.977Z,11.73
2022-11-21T03:07:32.500Z,10.20
2022-11-21T03:09:58.947Z,10.70
2022-11-21T03:12:25.440Z,11.05
2022-11-21T03:14:51.886Z,10.95
2022-11-21T03:17:18.692Z,10.80
2022-11-21T03:19:45.199Z,10.52
2022-11-21T03:22:13.154Z,10.87
2022-11-21T03:24:39.598Z,9.87
2022-11-21T03:27:06.088Z,11.50
2022-11-21T03:29:32.587Z,11.55
2022-11-21T03:31:59.424Z,11.43
2022-11-21T03:34:26.164Z,11.00
2022-11-21T03:36:52.887Z,10.83
2022-11-21T03:39:19.323Z,10.10
2022-11-21T03:41:45.799Z,10.63
2022-11-21T03:44:12.766Z,10.68
2022-11-21T03:46:41.864Z,10.53
2022-11-21T03:49:08.947Z,9.77
2022-11-21T03:51:35.857Z,9.97
2022-11-21T03:54:02.682Z,11.20
2022-11-21T03:56:29.433Z,10.43
2022-11-21T03:58:55.923Z,11.13
2022-11-21T04:01:23.149Z,13.17
2022-11-21T04:03:50.264Z,11.33
2022-11-21T04:06:19.460Z,10.97
2022-11-21T04:08:45.960Z,10.97
2022-11-21T04:11:12.598Z,10.20
2022-11-21T04:13:39.387Z,10.70
2022-11-21T04:16:06.249Z,11.37
2022-11-21T04:18:34.042Z,11.27
2022-11-21T04:21:02.028Z,11.23
2022-11-21T04:23:28.712Z,11.10
2022-11-21T04:25:55.358Z,10.67
2022-11-21T04:28:22.400Z,10.93
2022-11-21T04:30:49.005Z,10.60
2022-11-21T04:33:16.423Z,11.30
2022-11-21T04:35:43.971Z,10.60
2022-11-21T04:38:11.374Z,10.80
2022-11-21T04:40:38.213Z,10.90
2022-11-21T04:43:05.034Z,11.40
2022-11-21T04:45:31.976Z,12.60
2022-11-21T04:47:58.390Z,11.17
2022-11-21T04:50:25.025Z,11.40
2022-11-21T04:52:56.393Z,12.43
2022-11-21T04:55:24.987Z,10.57
2022-11-21T04:57:51.447Z,11.30
2022-11-21T05:00:23.841Z,11.10
2022-11-21T05:02:51.053Z,11.23
2022-11-21T05:05:17.573Z,10.43
2022-11-21T05:07:44.087Z,10.43
2022-11-21T05:10:10.623Z,9.97
2022-11-21T05:12:55.682Z,10.30
2022-11-21T05:15:24.898Z,12.00
2022-11-21T05:17:51.758Z,9.40
2022-11-21T05:20:19.047Z,9.97
2022-11-21T05:22:49.928Z,10.10
2022-11-21T05:25:16.829Z,10.37
2022-11-21T05:27:43.366Z,10.23
2022-11-21T05:30:11.264Z,10.17
2022-11-21T05:32:37.871Z,10.87
2022-11-21T05:35:04.490Z,10.93
2022-11-21T05:37:30.980Z,10.87
2022-11-21T05:39:57.536Z,10.67
2022-11-21T05:42:43.968Z,10.63
2022-11-21T05:45:10.703Z,10.07
2022-11-21T05:47:37.287Z,8.87
2022-11-21T05:50:04.421Z,9.97
2022-11-21T05:52:30.856Z,10.30
2022-11-21T05:54:57.356Z,10.53
2022-11-21T05:57:23.786Z,12.50
2022-11-21T05:59:50.255Z,13.20
2022-11-21T06:02:35.323Z,12.73
2022-11-21T06:05:01.801Z,12.07
2022-11-21T06:07:28.255Z,11.20
2022-11-21T06:09:55.107Z,11.50
2022-11-21T06:12:25.316Z,10.60
2022-11-21T06:14:52.272Z,9.90
2022-11-21T06:17:18.774Z,9.80
2022-11-21T06:19:45.208Z,10.93
2022-11-21T06:22:11.655Z,10.33
2022-11-21T06:24:38.105Z,10.73
2022-11-21T06:27:04.557Z,12.47
2022-11-21T06:29:30.986Z,13.50
2022-11-21T06:31:57.491Z,13.50
2022-11-21T06:34:27.116Z,11.57
2022-11-21T06:36:53.880Z,10.93
2022-11-21T06:39:20.330Z,13.20
2022-11-21T06:41:51.094Z,10.10
2022-11-21T06:44:18.600Z,11.90
2022-11-21T06:46:50.762Z,10.00
2022-11-21T06:49:17.554Z,11.43
2022-11-21T06:51:44.011Z,11.43
2022-11-21T06:54:13.866Z,11.27
2022-11-21T06:56:43.223Z,11.67
2022-11-21T06:59:09.645Z,10.57
2022-11-21T07:01:36.177Z,10.27
2022-11-21T07:04:02.750Z,9.97
2022-11-21T07:06:29.199Z,10.70
2022-11-21T07:11:42.439Z,10.73
2022-11-21T07:14:09.596Z,10.27
2022-11-21T07:16:36.281Z,10.87
2022-11-21T07:19:02.768Z,10.03
2022-11-21T07:21:29.359Z,10.73
2022-11-21T07:23:55.819Z,9.77
2022-11-21T07:26:22.337Z,8.67
2022-11-21T07:28:48.785Z,8.80
2022-11-21T07:31:15.274Z,8.57
2022-11-21T07:33:43.527Z,9.07
2022-11-21T07:36:10.928Z,7.87
2022-11-21T07:38:37.357Z,9.10
2022-11-21T07:41:03.976Z,9.23
2022-11-21T07:43:30.479Z,10.00
2022-11-21T07:45:56.968Z,9.00
2022-11-21T07:48:23.446Z,9.00
2022-11-21T07:50:49.949Z,9.53
2022-11-21T07:53:16.409Z,9.73
2022-11-21T07:55:42.900Z,9.17
2022-11-21T07:58:12.131Z,8.53
2022-11-21T08:00:42.705Z,9.50
2022-11-21T08:03:09.396Z,8.97
2022-11-21T08:05:37.346Z,8.83
2022-11-21T08:08:04.474Z,9.17
2022-11-21T08:10:31.070Z,8.97
2022-11-21T08:12:57.536Z,9.47
2022-11-21T08:15:24.013Z,10.20
2022-11-21T08:17:50.484Z,9.23
2022-11-21T08:20:17.219Z,9.20
2022-11-21T08:22:43.833Z,10.23
2022-11-21T08:25:10.782Z,10.83
2022-11-21T08:27:38.652Z,12.63
2022-11-21T08:30:09.853Z,10.20
2022-11-21T08:32:36.598Z,10.40
2022-11-21T08:35:03.653Z,9.83
2022-11-21T08:37:30.223Z,10.33
2022-11-21T08:39:58.970Z,10.47
2022-11-21T08:42:26.054Z,9.53
2022-11-21T08:44:52.549Z,10.17
2022-11-21T08:47:20.552Z,10.17
2022-11-21T08:49:47.496Z,11.07
2022-11-21T08:52:14.796Z,10.40
2022-11-21T08:54:41.338Z,9.97
2022-11-21T08:57:07.851Z,10.37
2022-11-21T08:59:34.273Z,9.77
2022-11-21T09:02:00.917Z,11.10
2022-11-21T09:04:27.652Z,10.27
2022-11-21T09:06:54.366Z,9.20
2022-11-21T09:09:25.370Z,10.83
2022-11-21T09:11:52.263Z,11.20
2022-11-21T09:14:37.347Z,10.67
2022-11-21T09:17:22.528Z,9.17
2022-11-21T09:19:49.084Z,10.03
2022-11-21T09:22:15.598Z,10.97
2022-11-21T09:24:42.078Z,10.00
2022-11-21T09:27:08.647Z,10.60
2022-11-21T09:29:35.138Z,10.53
2022-11-21T09:32:01.726Z,10.53
2022-11-21T09:34:28.497Z,10.50
2022-11-21T09:36:55.584Z,10.47
2022-11-21T09:39:23.020Z,11.57
2022-11-21T09:41:58.267Z,11.97
2022-11-21T09:44:33.914Z,12.27
2022-11-21T09:47:05.504Z,11.47
2022-11-21T09:49:38.856Z,12.30
2022-11-21T09:52:05.569Z,13.00
2022-11-21T09:54:34.662Z,13.60
2022-11-21T09:57:01.179Z,13.40
2022-11-21T09:59:38.919Z,13.47
2022-11-21T10:02:15.837Z,13.90
2022-11-21T10:04:42.692Z,13.83
2022-11-21T10:07:24.986Z,14.53
2022-11-21T10:10:22.527Z,14.37
2022-11-21T10:12:58.140Z,13.57
2022-11-21T10:15:38.253Z,14.47
2022-11-21T10:18:28.007Z,14.60
2022-11-21T10:21:15.773Z,13.60
2022-11-21T10:23:42.189Z,14.17
2022-11-21T10:26:38.600Z,15.00
2022-11-21T10:29:12.607Z,14.63
2022-11-21T10:31:40.372Z,14.20
2022-11-21T10:34:12.506Z,15.33
2022-11-21T10:36:41.256Z,14.30
2022-11-21T10:39:14.863Z,14.03
2022-11-21T10:42:00.680Z,14.23
2022-11-21T10:44:47.213Z,14.37
2022-11-21T10:47:14.862Z,13.90
2022-11-21T10:49:42.456Z,14.40
2022-11-21T10:52:16.464Z,14.87
2022-11-21T10:55:04.701Z,13.47
2022-11-21T10:57:50.951Z,13.10
2022-11-21T11:00:22.484Z,13.50
2022-11-21T11:02:55.065Z,11.63
2022-11-21T11:05:25.432Z,12.30
2022-11-21T11:08:04.178Z,13.37
2022-11-21T11:10:32.341Z,12.27
2022-11-21T11:13:45.282Z,12.83
2022-11-21T11:16:04.582Z,12.33
2022-11-21T11:21:20.517Z,12.13
2022-11-21T11:23:49.056Z,12.67
2022-11-21T11:26:25.090Z,12.80
2022-11-21T11:28:51.651Z,12.40
2022-11-21T11:31:18.317Z,14.07
2022-11-21T11:33:47.765Z,13.40
2022-11-21T11:36:17.089Z,11.67
2022-11-21T11:38:53.659Z,11.10
2022-11-21T11:41:30.990Z,12.10
2022-11-21T11:44:28.963Z,11.30
2022-11-21T11:47:24.418Z,11.27
2022-11-21T11:50:11.359Z,10.67
2022-11-21T11:52:49.586Z,11.37
2022-11-21T11:55:22.372Z,12.00
2022-11-21T11:57:50.710Z,11.73
2022-11-21T12:00:32.653Z,11.03
2022-11-21T12:03:06.235Z,11.10
2022-11-21T12:05:32.699Z,11.23
2022-11-21T12:08:40.262Z,10.27
2022-11-21T12:11:27.441Z,10.63
2022-11-21T12:13:54.819Z,11.17
2022-11-21T12:16:21.879Z,10.07
2022-11-21T12:19:11.130Z,10.53
2022-11-21T12:21:37.603Z,10.23
2022-11-21T12:24:04.754Z,10.37
2022-11-21T12:26:45.521Z,10.37
2022-11-21T12:29:21.283Z,9.90
2022-11-21T12:31:59.930Z,9.57
2022-11-21T12:35:00.488Z,9.40
2022-11-21T12:37:36.947Z,8.70
2022-11-21T12:40:21.413Z,10.00
2022-11-21T12:42:50.881Z,9.57
2022-11-21T12:45:31.711Z,9.57
2022-11-21T12:48:25.419Z,10.77
2022-11-21T12:51:39.688Z,10.00
2022-11-21T12:54:27.685Z,12.50
2022-11-21T12:57:21.688Z,11.13
2022-11-21T13:00:09.786Z,11.33
2022-11-21T13:03:01.163Z,11.63
2022-11-21T13:05:30.142Z,10.83
2022-11-21T13:08:21.287Z,12.03
2022-11-21T13:11:21.594Z,10.43
2022-11-21T13:13:49.848Z,10.67
2022-11-21T13:16:36.952Z,11.07
2022-11-21T13:19:17.343Z,10.63
2022-11-21T13:21:51.195Z,16.00
2022-11-21T13:24:50.090Z,15.07
2022-11-21T13:27:38.782Z,10.53
2022-11-21T13:30:09.033Z,15.07
2022-11-21T13:32:42.144Z,12.13
2022-11-21T13:35:15.006Z,13.47
2022-11-21T13:37:59.806Z,15.37
2022-11-21T13:40:26.238Z,11.30
2022-11-21T13:43:35.575Z,12.03
2022-11-21T13:46:02.388Z,14.27
2022-11-21T13:48:30.425Z,13.40
2022-11-21T13:51:08.825Z,10.50
2022-11-21T13:53:57.588Z,12.90
2022-11-21T13:56:44.758Z,19.23
2022-11-21T13:59:37.803Z,13.37
2022-11-21T14:02:32.823Z,18.20
2022-11-21T14:05:24.028Z,11.87
2022-11-21T14:07:50.808Z,11.90
2022-11-21T14:10:33.705Z,12.40
2022-11-21T14:13:01.800Z,12.67
2022-11-21T14:15:50.107Z,13.70
2022-11-21T14:18:23.507Z,13.03
2022-11-21T14:20:54.034Z,13.93
2022-11-21T14:23:22.217Z,12.63
2022-11-21T14:25:51.136Z,11.80
2022-11-21T14:28:25.018Z,11.17
2022-11-21T14:31:06.580Z,12.40
2022-11-21T14:33:34.712Z,11.90
2022-11-21T14:36:16.098Z,10.80
2022-11-21T14:39:07.760Z,12.20
2022-11-21T14:41:36.106Z,12.53
2022-11-21T14:44:02.818Z,11.40
2022-11-21T14:46:34.793Z,11.20
2022-11-21T14:49:21.758Z,13.17
2022-11-21T14:51:51.375Z,12.77
2022-11-21T14:54:22.947Z,14.83
2022-11-21T14:56:56.775Z,14.70
2022-11-21T14:59:29.346Z,12.13
2022-11-21T15:01:58.795Z,13.10
2022-11-21T15:04:44.814Z,17.93
2022-11-21T15:07:44.094Z,13.57
2022-11-21T15:10:29.370Z,11.23
2022-11-21T15:13:00.474Z,12.00
2022-11-21T15:15:43.946Z,11.03
2022-11-21T15:18:27.753Z,10.33
2022-11-21T15:21:00.186Z,10.50
2022-11-21T15:23:40.112Z,11.33
2022-11-21T15:26:29.110Z,10.33
2022-11-21T15:28:57.070Z,12.17
2022-11-21T15:31:23.756Z,12.30
2022-11-21T15:37:04.727Z,15.67
2022-11-21T15:39:31.525Z,16.37
2022-11-21T15:42:27.350Z,14.63
2022-11-21T15:45:04.268Z,15.63
2022-11-21T15:47:30.811Z,20.33
2022-11-21T15:49:57.385Z,15.20
2022-11-21T15:52:23.976Z,14.87
2022-11-21T15:54:50.560Z,21.40
2022-11-21T15:59:50.171Z,18.27
2022-11-21T16:02:16.615Z,16.87
2022-11-21T16:04:43.135Z,18.50
2022-11-21T16:07:09.640Z,15.80
2022-11-21T16:09:37.373Z,16.93
2022-11-21T16:12:04.036Z,16.50
2022-11-21T16:14:30.806Z,14.50
2022-11-21T16:16:57.243Z,15.73
2022-11-21T16:19:23.704Z,14.83
2022-11-21T16:21:50.146Z,14.80
2022-11-21T16:24:16.793Z,14.40
2022-11-21T16:26:43.226Z,14.77
2022-11-21T16:29:10.765Z,15.37
2022-11-21T16:31:37.236Z,15.07
2022-11-21T16:34:03.769Z,15.47
2022-11-21T16:36:31.472Z,15.00
2022-11-21T16:39:05.167Z,17.70
2022-11-21T16:41:35.084Z,18.20
2022-11-21T16:44:01.541Z,13.57
2022-11-21T16:46:28.020Z,13.20
2022-11-21T16:49:00.577Z,14.10
2022-11-21T16:51:27.854Z,12.97
2022-11-21T16:53:54.629Z,13.30
2022-11-21T16:56:21.136Z,14.27
2022-11-21T16:58:47.669Z,11.87
2022-11-21T17:01:16.260Z,12.60
2022-11-21T17:03:44.082Z,12.80
2022-11-21T17:06:13.683Z,13.63
2022-11-21T17:08:40.215Z,13.93
2022-11-21T17:11:21.919Z,13.07
2022-11-21T17:13:49.900Z,14.30
2022-11-21T17:16:18.224Z,31.03
2022-11-21T17:18:45.197Z,30.53
2022-11-21T17:21:13.899Z,19.57
2022-11-21T17:23:42.309Z,17.03
2022-11-21T17:26:11.214Z,13.90
2022-11-21T17:28:43.982Z,15.00
2022-11-21T17:31:14.571Z,15.23
2022-11-21T17:33:41.380Z,16.80
2022-11-21T17:36:12.208Z,16.07
2022-11-21T17:38:39.896Z,15.13
2022-11-21T17:41:07.942Z,15.37
2022-11-21T17:43:34.891Z,12.90
2022-11-21T17:46:09.136Z,13.17
2022-11-21T17:48:37.196Z,16.83
2022-11-21T17:51:10.587Z,15.93
2022-11-21T17:53:39.941Z,13.20
2022-11-21T17:56:07.491Z,12.73
2022-11-21T17:58:34.310Z,15.37
2022-11-21T18:01:03.459Z,12.83
2022-11-21T18:03:30.128Z,30.17
2022-11-21T18:06:02.168Z,47.53
2022-11-21T18:08:33.408Z,17.80
2022-11-21T18:11:00.091Z,16.37
2022-11-21T18:13:28.105Z,17.70
2022-11-21T18:15:54.836Z,14.63
2022-11-21T18:18:21.357Z,13.90
2022-11-21T18:20:47.834Z,16.67
2022-11-21T18:23:15.070Z,12.67
2022-11-21T18:25:41.793Z,12.80
2022-11-21T18:28:08.504Z,13.83
2022-11-21T18:30:35.588Z,15.03
2022-11-21T18:33:03.204Z,12.97
2022-11-21T18:35:29.783Z,13.53
2022-11-21T18:37:58.063Z,15.40
2022-11-21T18:40:25.036Z,14.97
2022-11-21T18:42:51.811Z,14.10
2022-11-21T18:45:18.402Z,13.47
2022-11-21T18:47:47.927Z,14.30
2022-11-21T18:50:15.747Z,13.67
2022-11-21T18:52:46.441Z,14.67
2022-11-21T18:55:13.462Z,14.93
2022-11-21T18:57:42.886Z,17.03
2022-11-21T19:00:10.360Z,27.43
2022-11-21T19:02:37.449Z,26.67
2022-11-21T19:05:04.265Z,21.87
2022-11-21T19:07:30.970Z,20.23
2022-11-21T19:10:20.338Z,22.40
2022-11-21T19:12:43.955Z,17.13
2022-11-21T19:15:11.697Z,14.93
2022-11-21T19:17:38.801Z,16.40
2022-11-21T19:20:05.726Z,15.13
2022-11-21T19:22:32.164Z,13.93
2022-11-21T19:24:58.874Z,14.40
2022-11-21T19:27:25.425Z,13.83
2022-11-21T19:29:54.979Z,13.80
2022-11-21T19:32:21.684Z,15.47
2022-11-21T19:34:48.134Z,13.13
2022-11-21T19:37:14.593Z,14.47
2022-11-21T19:39:41.146Z,13.97
2022-11-21T19:42:07.688Z,16.67
2022-11-21T19:44:34.147Z,15.37
2022-11-21T19:47:00.598Z,14.87
2022-11-21T19:49:27.324Z,13.97
2022-11-21T19:51:53.958Z,15.67
2022-11-21T19:54:20.410Z,16.33
2022-11-21T19:56:46.906Z,16.87
2022-11-21T19:59:13.708Z,16.47
2022-11-21T20:01:40.747Z,16.53
2022-11-21T20:04:07.436Z,16.87
2022-11-21T20:06:39.079Z,15.77
2022-11-21T20:09:14.682Z,16.17
2022-11-21T20:11:42.522Z,15.37
2022-11-21T20:14:09.132Z,16.63
2022-11-21T20:16:42.164Z,17.63
2022-11-21T20:19:10.731Z,17.03
2022-11-21T20:21:37.823Z,15.23
2022-11-21T20:24:05.345Z,17.23
2022-11-21T20:26:32.269Z,17.70
2022-11-21T20:28:58.909Z,17.20
2022-11-21T20:31:30.249Z,16.03
2022-11-21T20:34:02.239Z,17.47
2022-11-21T20:36:30.768Z,17.37
2022-11-21T20:39:01.170Z,17.27
2022-11-21T20:41:30.038Z,16.80
2022-11-21T20:46:45.234Z,17.27
2022-11-21T20:49:12.491Z,17.90
2022-11-21T20:54:26.381Z,20.37
2022-11-21T20:56:53.000Z,19.43
2022-11-21T20:59:19.448Z,18.30
2022-11-21T21:01:45.969Z,19.97
2022-11-21T21:04:12.554Z,20.20
2022-11-21T21:06:39.611Z,19.23
2022-11-21T21:09:06.112Z,21.20
2022-11-21T21:14:19.061Z,20.33
2022-11-21T21:16:45.582Z,19.58
2022-11-21T21:19:12.028Z,20.77
2022-11-21T21:21:40.175Z,21.27
2022-11-21T21:24:08.127Z,21.07
2022-11-21T21:26:42.273Z,19.97
2022-11-21T21:29:11.484Z,20.17
2022-11-21T21:31:37.916Z,18.57
2022-11-21T21:34:04.422Z,21.37
2022-11-21T21:36:32.282Z,21.17
2022-11-21T21:38:59.970Z,19.97
2022-11-21T21:41:27.982Z,20.23
2022-11-21T21:43:55.774Z,21.70
2022-11-21T21:46:24.468Z,21.00
2022-11-21T21:48:56.233Z,17.83
2022-11-21T21:51:27.896Z,19.93
2022-11-21T21:53:55.804Z,19.35
2022-11-21T21:56:23.243Z,21.10
2022-11-21T21:58:50.329Z,23.53
2022-11-21T22:01:18.914Z,21.07
2022-11-21T22:03:46.889Z,21.47
2022-11-21T22:06:16.193Z,26.00
2022-11-21T22:08:43.834Z,22.63
2022-11-21T22:11:12.473Z,22.67
2022-11-21T22:13:40.783Z,22.88
2022-11-21T22:16:09.188Z,18.37
2022-11-21T22:18:39.558Z,20.45
2022-11-21T22:21:32.574Z,21.83
2022-11-21T22:26:50.254Z,22.83
2022-11-21T22:29:16.946Z,18.73
2022-11-21T22:31:43.741Z,20.75
2022-11-21T22:34:13.431Z,21.33
2022-11-21T22:36:43.391Z,21.27
2022-11-21T22:39:10.549Z,20.53
2022-11-21T22:41:37.350Z,20.73
2022-11-21T22:44:04.510Z,21.93
2022-11-21T22:46:31.707Z,23.77
2022-11-21T22:48:59.170Z,21.63
2022-11-21T22:51:29.996Z,19.03
2022-11-21T22:53:57.745Z,21.30
2022-11-21T22:56:25.155Z,21.77
2022-11-21T22:58:52.027Z,17.20
2022-11-21T23:01:21.220Z,20.43
2022-11-21T23:03:49.097Z,19.17
2022-11-21T23:06:21.280Z,18.90
2022-11-21T23:08:48.228Z,19.33
2022-11-21T23:11:22.750Z,20.17
2022-11-21T23:13:51.611Z,20.60
2022-11-21T23:16:18.865Z,19.47
2022-11-21T23:18:45.873Z,21.50
2022-11-21T23:23:40.368Z,20.97
2022-11-21T23:26:07.411Z,20.27
2022-11-21T23:28:34.077Z,19.03
2022-11-21T23:31:00.784Z,19.97
2022-11-21T23:33:27.307Z,21.10
2022-11-21T23:35:53.773Z,20.60
2022-11-21T23:38:21.235Z,19.03
2022-11-21T23:40:48.612Z,19.50
2022-11-21T23:43:15.956Z,19.07
2022-11-21T23:45:42.822Z,22.93
2022-11-21T23:48:09.459Z,20.83
2022-11-21T23:50:35.945Z,20.00
2022-11-21T23:53:02.584Z,22.77
2022-11-21T23:55:29.081Z,21.60
2022-11-21T23:57:55.515Z,22.47
